Aérodrome :
LOGIN :

S'inscrire | Disclaimer

   EN    FR    IT 

 










Légende :    VFR   VFR Marginal   IFR   IFR Intensif   IFR Très Intensif
Visi : 
Plafond : 
>= 8 km
>= 3000ft
5 à 8 km
1000 à 3000 ft
1500m à 5 km
500 à 1000 ft
800 à 1500m
200 à 500 ft
< 800m
< 200 ft
Symboles :   Orages  Brouillard  Fortes neiges  Fortes précipitations  Vent > 20 kt
SIGMETs :   Divers  Orages  Givrage  Turbulence  Onde Orograph.  Cendres Volcan.






- Altitude de l'aérodrome : 1470 ft
- Code IATA : KLU


LOWK - Klagenfurt

DERNIER METAR :
  • 110550Z 28003KT 9999 FEW005 BKN008 M06/M07 Q1022 R10L/19//94 TEMPO BKN005

METARs EXPIRÉS :
  • 110520Z 30003KT 280V340 9999 FEW005 BKN008 M05/M06 Q1022 R10L/19//94 TEMPO BKN005
  • 110450Z 31004KT 9999 FEW005 BKN008 M05/M06 Q1022 R10L/19//94 TEMPO BKN005
  • 110420Z AUTO 31004KT 9999 FEW006 BKN007 M05/M06 Q1022
  • 110350Z AUTO 30004KT 9999 FEW005 BKN006 M05/M06 Q1023
  • 110320Z AUTO 32004KT 9999 FEW005 BKN006 M05/M05 Q1023

TAF TAF LOWK
Valide du 11 à 06h jusqu'au 12 à 06h UTC


110515Z 1106/1206 VRB02KT 9999 SCT005 BKN008 TXM01/1113Z TNM06/1206Z
PROB30
TEMPO 1106/1108 6000 BKN005
BECMG 1109/1112 FEW040
BECMG 1118/1121 8000 BKN007
PROB30
TEMPO 1121/1206 1200 FZBCFG VV002



MET'MAP, la Météo Aéronautique d'un coup d'oeil ! - Copyright ORBIFLY Décembre 2007 - Disclaimer

ORBIFLY MET'MAP TEAM :

Programmation & Développement : Alexandra Zaïnal
Sur une idée originale de : Baudouin d'Aumeries
Assistance à la programmation : Marc-Olivier Méhu
Soutien technique & logistique : Manuel Goepfert

Contact : metmap@orbifly.com




SOURCES & CREDITS :

   NOAA